Latest Weather Observations for Keith West

IDS60801

Issued at 9:02 am CST Friday 30 September 2016 (issued every 30 minutes, with the page automatically refreshed every 10 minutes)

About weather observations | Map of weather stations | Latest weather observations for SA | Other Formats
Station Details ID: 025557 Name: MUNKORA Lat: -36.11 Lon: 140.33 Height: 27.0 m
Data from the previous 72 hours. | See also: Recent months at Keith West
Date/Time
CST
Temp
°C
App
Temp
°C
Dew
Point
°C
Rel
Hum
%
Delta-T
°C
Wind Press
QNH
hPa
Press
MSL
hPa
Rain since
9am
mm
Dir  Spd
km/h
Gust
km/h
Spd
kts
Gust
kts
30/09:00am 11.8 6.3 10.7 93 0.6 W 30 44 16 24 996.8 996.8 1.8
30/08:30am 10.9 6.7 9.8 93 0.6 WNW 22 30 12 16 996.4 996.4 1.6
30/08:00am 10.3 6.9 9.1 92 0.6 NW 17 24 9 13 996.5 996.5 1.6
30/07:30am 9.9 7.1 8.7 92 0.6 NW 13 19 7 10 996.6 996.6 1.4
30/07:00am 9.6 6.8 8.4 92 0.6 WNW 13 17 7 9 996.4 996.4 1.4
30/06:30am 8.8 5.8 7.7 93 0.5 W 13 15 7 8 996.4 996.4 1.4
30/06:00am 8.4 4.6 7.5 94 0.4 W 17 22 9 12 996.2 996.2 1.4
30/05:30am 6.3 3.9 5.3 93 0.4 WNW 7 9 4 5 995.7 995.7 1.2
30/05:00am 6.1 2.9 5.2 94 0.4 WNW 11 13 6 7 995.4 995.4 1.2
30/04:30am 5.1 2.1 4.1 93 0.4 W 9 11 5 6 994.9 994.9 1.2
30/04:00am 5.5 2.6 4.5 93 0.4 W 9 13 5 7 994.6 994.6 1.2
30/03:30am 5.2 1.8 4.2 93 0.4 W 11 15 6 8 994.5 994.5 1.2
30/03:00am 6.1 3.3 5.1 93 0.4 W 9 13 5 7 993.8 993.7 1.2
30/02:30am 5.2 1.8 4.2 93 0.4 WSW 11 13 6 7 993.3 993.2 1.2
30/02:00am 5.0 2.3 3.8 92 0.5 WSW 7 9 4 5 992.9 992.8 1.2
30/01:30am 5.8 3.5 4.6 92 0.5 WSW 6 7 3 4 992.6 992.6 1.2
30/01:00am 6.4 3.6 5.0 91 0.6 SW 9 15 5 8 992.5 992.5 1.2
30/12:30am 7.2 4.5 5.8 91 0.6 SW 9 11 5 6 992.2 992.2 1.2
30/12:00am 7.8 5.2 6.3 90 0.7 SSW 9 13 5 7 991.8 991.8 1.2
 
Date/Time
CST
Temp
°C
App
Temp
°C
Dew
Point
°C
Rel
Hum
%
Delta-T
°C
Wind Press
QNH
hPa
Press
MSL
hPa
Rain since
9am
mm
Dir  Spd
km/h
Gust
km/h
Spd
kts
Gust
kts
29/11:30pm 8.8 6.1 7.3 90 0.7 SW 11 15 6 8 991.2 991.2 1.2
29/11:00pm 8.8 6.8 7.3 90 0.7 SW 7 11 4 6 990.7 990.7 1.2
29/10:30pm 8.9 6.6 7.4 90 0.7 SW 9 11 5 6 990.5 990.5 1.2
29/10:00pm 8.8 6.5 7.3 90 0.7 SW 9 13 5 7 990.1 990.1 1.2
29/09:30pm 8.8 6.8 7.1 89 0.8 SW 7 9 4 5 989.7 989.7 1.2
29/09:00pm 8.9 7.0 7.4 90 0.7 SW 7 11 4 6 989.5 989.5 1.2
29/08:30pm 8.8 7.0 7.1 89 0.8 WSW 6 6 3 3 989.2 989.2 1.2
29/08:00pm 9.1 7.2 7.4 89 0.8 SW 7 9 4 5 988.9 988.9 1.2
29/07:30pm 8.9 7.1 7.2 89 0.8 SW 6 7 3 4 988.4 988.4 1.2
29/07:00pm 8.9 7.1 7.0 88 0.9 WSW 6 7 3 4 987.8 987.8 1.2
29/06:30pm 9.4 7.6 7.2 86 1.1 WSW 6 7 3 4 987.2 987.2 1.2
29/06:00pm 10.0 8.4 7.8 86 1.1 WSW 6 7 3 4 986.8 986.8 1.2
29/05:30pm 10.7 8.5 7.9 83 1.4 WSW 9 11 5 6 986.4 986.4 1.2
29/05:00pm 11.4 9.7 8.4 82 1.5 SW 7 11 4 6 985.9 985.9 1.2
29/04:30pm 11.1 9.1 8.7 85 1.2 WSW 9 13 5 7 985.3 985.3 1.2
29/04:00pm 13.2 10.3 8.3 72 2.4 W 13 19 7 10 984.8 984.8 1.0
29/03:30pm 12.7 10.2 8.0 73 2.3 SW 11 17 6 9 984.4 984.4 1.0
29/03:00pm 12.7 9.8 8.2 74 2.3 SW 13 19 7 10 984.1 984.1 1.0
29/02:30pm 13.2 11.4 9.5 78 1.9 SSW 9 17 5 9 984.0 984.0 1.0
29/02:00pm 12.3 10.9 9.5 83 1.4 SSE 7 11 4 6 983.5 983.5 0.8
29/01:30pm 11.4 9.3 8.4 82 1.5 S 9 15 5 8 983.2 983.2 0.8
29/01:00pm 11.3 9.5 9.4 88 1.0 SSE 9 15 5 8 982.9 982.9 0.8
29/12:30pm 10.2 7.6 7.8 85 1.2 SE 11 17 6 9 982.9 982.9 0.6
29/12:00pm 10.4 7.5 8.3 87 1.0 E 13 19 7 10 982.8 982.8 0.2
29/11:30am 10.0 7.1 8.1 88 0.9 ENE 13 20 7 11 982.5 982.5 0.2
29/11:00am 10.0 5.3 7.6 85 1.1 NE 22 33 12 18 982.7 982.7 0.0
29/10:30am 10.9 4.3 6.1 72 2.3 NNE 30 43 16 23 982.5 982.5 0.0
29/10:00am 11.1 3.8 5.6 69 2.5 NNE 33 46 18 25 982.5 982.5 0.0
29/09:37am 10.6 3.0 5.8 72 2.2 NNE 35 54 19 29 982.6 982.6 0.0
29/09:30am 10.8 3.2 5.8 71 2.4 NNE 35 52 19 28 982.6 982.6 0.0
29/09:10am 10.5 3.3 5.9 73 2.1 NNE 33 54 18 29 982.7 982.7 0.0
29/09:00am 10.2 2.9 5.4 72 2.2 NNE 33 50 18 27 982.8 982.8 10.8
29/08:31am 10.0 2.6 5.2 72 2.2 N 33 52 18 28 983.3 983.3 10.8
29/08:30am 9.9 2.1 4.7 70 2.4 N 35 52 19 28 983.3 983.3 10.8
29/08:00am 10.1 2.0 5.1 71 2.3 N 37 56 20 30 983.8 983.8 10.8
29/07:48am 9.3 2.4 4.7 73 2.0 N 30 57 16 31 983.8 983.8 10.8
29/07:30am 8.7 1.4 4.7 76 1.8 NNE 32 46 17 25 983.9 983.9 10.8
29/07:15am 8.4 1.9 4.6 77 1.7 NNE 28 46 15 25 983.9 983.9 10.8
29/07:00am 8.2 1.3 4.6 78 1.6 NNE 30 44 16 24 984.0 984.0 10.8
29/06:30am 7.9 1.4 4.5 79 1.5 N 28 41 15 22 984.3 984.3 10.8
29/06:00am 7.7 0.8 4.5 80 1.4 N 30 39 16 21 984.6 984.6 10.8
29/05:30am 7.0 0.8 4.1 82 1.3 N 26 33 14 18 984.9 984.9 10.8
29/05:00am 7.0 0.8 4.1 82 1.2 N 26 35 14 19 985.1 985.1 10.8
29/04:30am 7.0 1.1 4.1 82 1.3 N 24 35 13 19 985.4 985.4 10.8
29/04:00am 7.0 1.5 4.1 82 1.2 N 22 33 12 18 985.7 985.7 10.8
29/03:30am 7.0 1.1 4.1 82 1.3 N 24 33 13 18 986.2 986.2 10.8
29/03:00am 7.5 0.6 4.8 83 1.2 NNW 30 44 16 24 986.5 986.5 10.8
29/02:30am 7.7 2.5 5.3 85 1.1 NNW 22 32 12 17 986.7 986.7 10.8
29/02:00am 8.3 2.1 6.1 86 1.0 NNW 28 37 15 20 987.2 987.2 10.8
29/01:30am 8.9 3.6 6.9 87 0.9 N 24 33 13 18 987.6 987.6 10.8
29/01:00am 8.6 4.2 6.4 86 1.0 NNW 19 26 10 14 988.3 988.3 10.8
29/12:30am 9.2 4.9 7.2 87 1.0 NNW 19 28 10 15 988.6 988.6 10.8
29/12:00am 9.3 4.9 7.6 89 0.8 NNW 20 26 11 14 988.8 988.8 10.8
 
Date/Time
CST
Temp
°C
App
Temp
°C
Dew
Point
°C
Rel
Hum
%
Delta-T
°C
Wind Press
QNH
hPa
Press
MSL
hPa
Rain since
9am
mm
Dir  Spd
km/h
Gust
km/h
Spd
kts
Gust
kts
28/11:30pm 9.8 5.5 7.9 88 0.9 NNW 20 28 11 15 988.8 988.8 10.6
28/11:00pm 10.6 5.8 8.7 88 0.9 NW 24 35 13 19 988.8 988.8 10.6
28/10:30pm 10.7 6.3 8.8 88 0.9 NNW 22 32 12 17 988.5 988.5 10.6
28/10:00pm 10.9 6.8 8.7 86 1.1 NW 20 33 11 18 988.6 988.6 10.6
28/09:30pm 11.3 7.3 8.9 85 1.2 WNW 20 28 11 15 988.7 988.7 10.6
28/09:11pm 11.8 5.9 9.0 83 1.4 WNW 30 50 16 27 989.0 989.0 10.6
28/09:00pm 12.2 6.9 9.9 86 1.2 NW 28 39 15 21 988.9 988.9 10.6
28/08:35pm 13.4 7.3 11.6 89 1.0 N 35 56 19 30 988.5 988.5 10.4
28/08:30pm 13.3 7.8 11.7 90 0.9 N 32 48 17 26 988.2 988.2 10.4
28/08:00pm 13.3 8.4 11.4 88 1.0 NE 28 41 15 22 987.4 987.4 10.0
28/07:30pm 13.0 6.2 10.5 85 1.3 ENE 37 52 20 28 987.0 987.0 9.4
28/07:00pm 12.7 3.0 10.6 87 1.1 ENE 52 83 28 45 986.3 986.3 9.4
28/06:51pm 12.8 4.7 10.7 87 1.1 ENE 44 74 24 40 986.7 986.7 9.4
28/06:38pm 12.4 5.9 10.5 88 1.0 ENE 35 56 19 30 988.6 988.6 9.2
28/06:30pm 12.3 6.4 10.4 88 1.0 ENE 32 43 17 23 988.3 988.3 9.2
28/06:00pm 12.6 7.4 10.3 86 1.2 NE 28 41 15 22 990.0 990.0 6.2
28/05:30pm 12.8 6.1 9.8 82 1.6 ENE 35 46 19 25 989.4 989.4 4.4
28/05:00pm 12.6 6.4 10.1 85 1.3 ENE 33 46 18 25 991.0 991.0 4.4
28/04:30pm 12.1 7.3 10.2 88 1.0 ENE 26 41 14 22 992.1 992.1 4.4
28/04:00pm 12.0 8.4 9.9 87 1.1 ENE 19 28 10 15 994.1 994.1 4.0
28/03:30pm 11.8 9.3 9.7 87 1.1 NE 13 19 7 10 995.5 995.5 3.4
28/03:00pm 12.0 9.2 9.9 87 1.1 NE 15 22 8 12 996.5 996.5 2.8
28/02:30pm 12.0 6.2 9.4 84 1.3 NNE 30 48 16 26 998.1 998.1 1.4
28/02:02pm 14.1 5.6 8.5 69 2.8 N 43 61 23 33 999.2 999.2 0.0
28/02:00pm 14.4 5.6 8.1 66 3.1 N 44 63 24 34 999.2 999.2 0.0
28/01:38pm 17.6 10.9 5.5 45 5.9 N 30 50 16 27 999.2 999.2 0.0
28/01:30pm 17.4 11.2 6.3 48 5.5 NNE 28 44 15 24 999.1 999.1 0.0
28/01:00pm 17.5 11.3 6.1 47 5.6 NNE 28 43 15 23 999.2 999.2 0.0
28/12:36pm 17.9 11.6 5.8 45 5.9 NNE 28 52 15 28 999.7 999.7 0.0
28/12:30pm 17.9 10.9 6.1 46 5.8 NNE 32 43 17 23 999.6 999.6 0.0
28/12:13pm 17.9 10.7 5.8 45 5.9 NNE 33 52 18 28 999.8 999.8 0.0
28/12:00pm 18.0 10.0 5.6 44 6.1 NNE 37 52 20 28 1000.4 1000.4 0.0
28/11:53am 18.3 10.7 5.8 44 6.1 NNE 35 54 19 29 1000.4 1000.4 0.0
28/11:30am 18.9 11.0 6.1 43 6.4 NE 37 50 20 27 1000.9 1000.9 0.0
28/11:00am 18.2 10.7 6.4 46 5.8 NNE 35 48 19 26 1002.4 1002.4 0.0
28/10:30am 18.3 11.3 6.2 45 6.0 NNE 32 43 17 23 1003.9 1003.9 0.0
28/10:00am 17.3 10.2 5.6 46 5.7 NE 32 44 17 24 1004.9 1004.9 0.0
28/09:30am 16.3 10.4 5.9 50 5.0 NNE 26 39 14 21 1006.2 1006.2 0.0
28/09:00am 15.1 9.4 6.7 57 4.1 NE 26 39 14 21 1007.0 1007.0 0.2
28/08:30am 14.3 9.2 7.6 64 3.3 NE 24 33 13 18 1007.9 1007.9 0.2
28/08:00am 12.5 8.3 7.6 72 2.4 NNE 19 26 10 14 1008.5 1008.5 0.2
28/07:30am 10.1 6.1 6.8 80 1.6 NNE 17 22 9 12 1009.0 1009.0 0.2
28/07:00am 8.3 4.5 5.8 84 1.1 NE 15 20 8 11 1009.2 1009.2 0.2
28/06:30am 7.1 3.5 5.1 87 0.9 NNE 13 19 7 10 1009.4 1009.4 0.2
28/06:00am 6.4 2.0 4.6 88 0.8 NE 17 20 9 11 1009.4 1009.4 0.2
28/05:30am 6.2 2.5 4.7 90 0.7 NNE 13 19 7 10 1009.4 1009.4 0.2
28/05:00am 6.1 2.4 4.7 91 0.6 NE 13 19 7 10 1009.6 1009.6 0.2
28/04:30am 5.9 2.3 4.9 93 0.4 NE 13 17 7 9 1010.1 1010.1 0.2
28/04:00am 4.8 1.4 3.8 93 0.4 NE 11 13 6 7 1010.4 1010.4 0.2
28/03:30am 4.4 1.6 3.2 92 0.5 NE 7 9 4 5 1010.6 1010.6 0.2
28/03:00am 4.6 1.5 3.4 92 0.5 NE 9 11 5 6 1010.9 1010.9 0.2
28/02:30am 4.5 1.3 3.3 92 0.5 NE 9 11 5 6 1011.1 1011.1 0.2
28/02:00am 5.0 2.3 3.7 91 0.5 NNE 7 9 4 5 1011.5 1011.5 0.2
28/01:30am 5.4 2.8 4.1 91 0.6 NNE 7 9 4 5 1011.6 1011.6 0.2
28/01:00am 5.6 2.6 4.2 91 0.6 NNE 9 9 5 5 1012.0 1012.0 0.2
28/12:30am 5.4 2.4 4.1 91 0.6 NNE 9 11 5 6 1012.4 1012.4 0.2
28/12:00am 6.0 3.5 4.6 91 0.6 NNE 7 9 4 5 1012.6 1012.6 0.2
 
Date/Time
CST
Temp
°C
App
Temp
°C
Dew
Point
°C
Rel
Hum
%
Delta-T
°C
Wind Press
QNH
hPa
Press
MSL
hPa
Rain since
9am
mm
Dir  Spd
km/h
Gust
km/h
Spd
kts
Gust
kts
27/11:30pm 5.5 2.9 4.0 90 0.6 NNE 7 7 4 4 1012.8 1012.8 0.2
27/11:00pm 5.8 3.2 4.3 90 0.6 NNE 7 7 4 4 1012.9 1012.9 0.2
27/10:30pm 6.2 3.3 4.7 90 0.6 N 9 9 5 5 1013.3 1013.3 0.2
27/10:00pm 6.4 3.2 4.9 90 0.7 N 11 11 6 6 1013.4 1013.4 0.2
27/09:30pm 6.7 3.9 5.2 90 0.7 N 9 11 5 6 1013.5 1013.5 0.2
27/09:00pm 6.8 4.0 5.1 89 0.7 N 9 9 5 5 1013.6 1013.6 0.2
27/08:30pm 7.5 5.2 5.6 88 0.9 NNE 7 9 4 5 1013.7 1013.7 0.2
27/08:00pm 7.8 5.5 5.8 87 0.9 NNE 7 9 4 5 1013.7 1013.7 0.2
27/07:30pm 9.5 8.1 7.4 87 1.0 WNW 4 4 2 2 1013.7 1013.7 0.2
27/07:00pm 10.2 8.9 7.6 84 1.2 NW 4 6 2 3 1013.5 1013.5 0.2
27/06:30pm 10.9 9.3 8.1 83 1.4 NNW 6 7 3 4 1013.5 1013.5 0.2
27/06:00pm 12.0 10.2 8.1 77 1.9 NW 7 9 4 5 1013.6 1013.6 0.2
27/05:30pm 14.4 13.4 9.0 70 2.7 W 4 7 2 4 1013.4 1013.4 0.2
27/05:00pm 14.3 12.0 7.6 64 3.3 WNW 9 15 5 8 1013.5 1013.5 0.2
27/04:30pm 14.1 10.4 7.9 66 3.1 W 17 24 9 13 1013.6 1013.6 0.2
27/04:00pm 15.0 10.9 8.0 63 3.5 W 19 26 10 14 1013.6 1013.6 0.2
27/03:30pm 15.2 11.3 7.0 58 4.0 W 17 24 9 13 1013.6 1013.6 0.2
27/03:00pm 16.4 12.7 7.9 57 4.3 W 17 26 9 14 1013.5 1013.5 0.2
27/02:30pm 15.1 10.7 7.4 60 3.8 W 20 26 11 14 1013.4 1013.4 0.2
27/02:00pm 15.0 10.1 7.1 59 3.9 WNW 22 33 12 18 1013.6 1013.6 0.2
27/01:30pm 14.7 9.9 7.3 61 3.6 W 22 32 12 17 1013.8 1013.8 0.2
27/01:00pm 16.2 11.5 7.7 57 4.3 WNW 22 32 12 17 1013.9 1013.9 0.2
27/12:30pm 15.0 10.7 7.8 62 3.6 W 20 24 11 13 1014.3 1014.3 0.2
27/12:00pm 14.4 10.4 8.1 66 3.1 WNW 19 32 10 17 1014.5 1014.5 0.2
27/11:30am 14.6 11.5 9.0 69 2.9 WNW 15 20 8 11 1014.7 1014.7 0.2
27/11:00am 13.9 11.5 8.7 71 2.6 WNW 11 17 6 9 1014.8 1014.8 0.0
27/10:30am 11.9 9.3 9.5 85 1.2 WNW 13 19 7 10 1015.4 1015.4 0.0
27/10:00am 11.3 5.6 8.5 83 1.4 W 28 43 15 23 1015.8 1015.8 0.0
27/09:30am 13.4 9.3 7.8 69 2.8 NW 19 26 10 14 1015.5 1015.5 0.0

Other Formats:

Comma delimited format used in spreadsheet applications
http://www.bom.gov.au/fwo/IDS60801/IDS60801.95815.axf

JavaScript Object Notation format (JSON) in row-major order
http://www.bom.gov.au/fwo/IDS60801/IDS60801.95815.json